createdAt,value
2022-12-27T00:01:18.888Z,88.73
2022-12-27T00:03:46.835Z,88.81
2022-12-27T00:06:17.787Z,88.58
2022-12-27T00:08:46.007Z,88.54
2022-12-27T00:11:19.461Z,88.76
2022-12-27T00:13:47.322Z,88.89
2022-12-27T00:16:18.263Z,89.36
2022-12-27T00:18:49.061Z,90.10
2022-12-27T00:21:17.465Z,89.17
2022-12-27T00:23:48.198Z,89.72
2022-12-27T00:26:20.687Z,89.50
2022-12-27T00:28:48.503Z,89.46
2022-12-27T00:31:17.562Z,88.52
2022-12-27T00:33:46.822Z,89.39
2022-12-27T00:36:19.584Z,89.13
2022-12-27T00:38:47.750Z,90.02
2022-12-27T00:41:15.868Z,89.41
2022-12-27T00:43:43.984Z,89.70
2022-12-27T00:46:11.710Z,90.62
2022-12-27T00:48:39.678Z,89.90
2022-12-27T00:51:11.174Z,90.05
2022-12-27T00:53:38.540Z,90.56
2022-12-27T00:56:12.120Z,90.96
2022-12-27T00:58:41.072Z,90.68
2022-12-27T01:01:18.178Z,90.15
2022-12-27T01:03:46.282Z,90.93
2022-12-27T01:06:16.275Z,90.82
2022-12-27T01:08:43.486Z,90.85
2022-12-27T01:11:11.392Z,91.10
2022-12-27T01:13:39.816Z,91.21
2022-12-27T01:16:18.523Z,90.99
2022-12-27T01:18:46.090Z,91.44
2022-12-27T01:21:15.965Z,91.63
2022-12-27T01:23:43.954Z,91.71
2022-12-27T01:26:16.791Z,91.61
2022-12-27T01:28:44.493Z,92.42
2022-12-27T01:31:15.164Z,92.38
2022-12-27T01:33:43.018Z,91.82
2022-12-27T01:36:14.908Z,91.67
2022-12-27T01:38:43.213Z,91.97
2022-12-27T01:41:34.037Z,91.91
2022-12-27T01:44:01.554Z,92.08
2022-12-27T01:46:30.516Z,91.75
2022-12-27T01:48:58.100Z,92.27
2022-12-27T01:51:25.301Z,92.17
2022-12-27T01:53:53.715Z,91.89
2022-12-27T01:56:29.364Z,92.49
2022-12-27T01:59:02.670Z,92.48
2022-12-27T02:01:35.806Z,91.96
2022-12-27T02:04:19.013Z,93.23
2022-12-27T02:06:48.168Z,92.24
2022-12-27T02:09:41.283Z,92.65
2022-12-27T02:12:09.911Z,92.76
2022-12-27T02:14:49.090Z,92.51
2022-12-27T02:17:29.287Z,92.54
2022-12-27T02:20:14.195Z,92.62
2022-12-27T02:23:21.578Z,92.25
2022-12-27T02:26:16.415Z,92.94
2022-12-27T02:29:05.123Z,92.64
2022-12-27T02:31:48.638Z,93.43
2022-12-27T02:34:23.964Z,92.91
2022-12-27T02:36:59.081Z,92.85
2022-12-27T02:39:29.124Z,93.29
2022-12-27T02:42:16.022Z,93.62
2022-12-27T02:45:01.612Z,93.72
2022-12-27T02:47:49.002Z,93.65
2022-12-27T02:50:35.401Z,93.72
2022-12-27T02:53:05.343Z,94.17
2022-12-27T02:56:22.091Z,94.04
2022-12-27T02:59:19.100Z,94.26
2022-12-27T03:02:04.663Z,94.95
2022-12-27T03:05:02.496Z,94.37
2022-12-27T03:07:51.322Z,94.48
2022-12-27T03:11:01.144Z,94.00
2022-12-27T03:13:55.605Z,94.74
2022-12-27T03:16:41.520Z,94.29
2022-12-27T03:19:37.465Z,94.75
2022-12-27T03:22:26.032Z,94.67
2022-12-27T03:25:15.229Z,95.04
2022-12-27T03:27:45.866Z,94.73
2022-12-27T03:30:32.472Z,95.12
2022-12-27T03:33:13.478Z,95.19
2022-12-27T03:35:43.730Z,95.36
2022-12-27T03:38:14.022Z,95.11
2022-12-27T03:41:12.896Z,94.59
2022-12-27T03:43:41.369Z,95.22
2022-12-27T03:46:34.627Z,95.39
2022-12-27T03:49:21.869Z,95.05
2022-12-27T03:52:01.741Z,95.81
2022-12-27T03:54:36.402Z,95.40
2022-12-27T03:57:08.682Z,95.06
2022-12-27T03:59:36.004Z,95.27
2022-12-27T04:02:03.740Z,95.68
2022-12-27T04:04:30.889Z,95.31
2022-12-27T04:06:57.804Z,95.63
2022-12-27T04:09:43.628Z,95.28
2022-12-27T04:12:29.262Z,94.92
2022-12-27T04:15:15.170Z,94.24
2022-12-27T04:18:01.359Z,94.95
2022-12-27T04:20:47.007Z,94.63
2022-12-27T04:23:32.745Z,94.54
2022-12-27T04:26:18.370Z,94.48
2022-12-27T04:29:04.056Z,94.55
2022-12-27T04:31:49.891Z,94.21
2022-12-27T04:34:35.483Z,94.25
2022-12-27T04:37:02.636Z,94.41
2022-12-27T04:39:29.520Z,93.77
2022-12-27T04:42:15.102Z,93.39
2022-12-27T04:45:00.123Z,94.81
2022-12-27T04:47:45.682Z,93.76
2022-12-27T04:50:50.693Z,94.38
2022-12-27T04:53:39.464Z,93.51
2022-12-27T04:56:07.274Z,93.35
2022-12-27T04:58:34.620Z,93.60
2022-12-27T05:01:22.311Z,93.45
2022-12-27T05:03:53.125Z,93.69
2022-12-27T05:06:20.511Z,94.06
2022-12-27T05:09:07.569Z,93.85
2022-12-27T05:11:53.038Z,94.35
2022-12-27T05:14:19.940Z,94.50
2022-12-27T05:16:46.972Z,94.74
2022-12-27T05:19:14.689Z,94.43
2022-12-27T05:22:04.774Z,93.52
2022-12-27T05:24:50.819Z,94.53
2022-12-27T05:27:18.059Z,94.95
2022-12-27T05:29:46.260Z,94.39
2022-12-27T05:32:13.944Z,94.53
2022-12-27T05:34:41.573Z,94.60
2022-12-27T05:37:08.672Z,95.57
2022-12-27T05:39:35.712Z,95.32
2022-12-27T05:42:03.477Z,95.59
2022-12-27T05:44:30.409Z,95.08
2022-12-27T05:46:57.422Z,95.21
2022-12-27T05:49:24.493Z,95.13
2022-12-27T05:51:51.465Z,95.33
2022-12-27T05:54:18.465Z,95.41
2022-12-27T05:56:45.299Z,94.38
2022-12-27T05:59:12.132Z,95.09
2022-12-27T06:01:39.049Z,94.78
2022-12-27T06:04:06.137Z,95.29
2022-12-27T06:06:34.610Z,95.21
2022-12-27T06:09:01.822Z,94.89
2022-12-27T06:11:28.810Z,95.07
2022-12-27T06:13:55.775Z,94.96
2022-12-27T06:16:22.912Z,94.94
2022-12-27T06:18:50.300Z,95.30
2022-12-27T06:21:20.787Z,95.51
2022-12-27T06:23:48.545Z,94.69
2022-12-27T06:26:22.088Z,94.99
2022-12-27T06:28:51.151Z,95.48
2022-12-27T06:31:20.141Z,95.57
2022-12-27T06:33:48.581Z,95.33
2022-12-27T06:36:18.563Z,94.99
2022-12-27T06:38:45.488Z,95.41
2022-12-27T06:41:15.232Z,95.68
2022-12-27T06:43:42.064Z,95.59
2022-12-27T06:46:17.644Z,95.87
2022-12-27T06:48:47.888Z,95.81
2022-12-27T06:51:17.445Z,95.87
2022-12-27T06:53:44.324Z,96.11
2022-12-27T06:56:16.499Z,96.30
2022-12-27T06:58:44.416Z,96.11
2022-12-27T07:01:17.974Z,96.39
2022-12-27T07:03:49.390Z,96.45
2022-12-27T07:06:16.604Z,96.52
2022-12-27T07:08:44.009Z,96.90
2022-12-27T07:11:12.953Z,96.44
2022-12-27T07:13:45.775Z,96.48
2022-12-27T07:16:16.348Z,96.84
2022-12-27T07:18:43.659Z,97.09
2022-12-27T07:21:16.097Z,97.06
2022-12-27T07:23:42.993Z,97.01
2022-12-27T07:26:13.234Z,96.80
2022-12-27T07:28:40.448Z,97.08
2022-12-27T07:31:13.163Z,97.14
2022-12-27T07:33:40.018Z,97.17
2022-12-27T07:36:13.572Z,97.58
2022-12-27T07:38:40.928Z,97.68
2022-12-27T07:41:07.958Z,97.63
2022-12-27T07:43:35.575Z,98.16
2022-12-27T07:46:05.567Z,98.09
2022-12-27T07:48:32.551Z,98.15
2022-12-27T07:50:59.930Z,98.05
2022-12-27T07:53:26.848Z,98.01
2022-12-27T07:55:53.888Z,98.07
2022-12-27T07:58:21.155Z,98.07
2022-12-27T08:00:51.046Z,97.79
2022-12-27T08:03:18.797Z,97.55
2022-12-27T08:05:52.568Z,97.49
2022-12-27T08:08:23.516Z,97.99
2022-12-27T08:11:02.089Z,97.54
2022-12-27T08:13:32.736Z,97.21
2022-12-27T08:15:59.666Z,96.99
2022-12-27T08:18:27.198Z,97.40
2022-12-27T08:20:54.667Z,97.19
2022-12-27T08:23:22.070Z,96.46
2022-12-27T08:25:49.675Z,96.30
2022-12-27T08:28:18.475Z,96.94
2022-12-27T08:30:46.162Z,96.12
2022-12-27T08:33:15.207Z,96.25
2022-12-27T08:35:54.043Z,95.42
2022-12-27T08:38:21.759Z,95.80
2022-12-27T08:40:48.755Z,95.47
2022-12-27T08:43:15.819Z,95.79
2022-12-27T08:45:42.651Z,95.53
2022-12-27T08:48:09.490Z,95.46
2022-12-27T08:50:36.356Z,94.75
2022-12-27T08:53:05.522Z,95.07
2022-12-27T08:55:33.959Z,94.31
2022-12-27T08:58:10.523Z,94.60
2022-12-27T09:00:42.645Z,93.70
2022-12-27T09:03:09.646Z,94.04
2022-12-27T09:05:41.386Z,94.03
2022-12-27T09:08:09.159Z,93.35
2022-12-27T09:10:36.483Z,93.36
2022-12-27T09:13:03.319Z,93.02
2022-12-27T09:15:30.831Z,94.09
2022-12-27T09:17:57.704Z,93.14
2022-12-27T09:20:24.734Z,93.25
2022-12-27T09:22:52.061Z,92.87
2022-12-27T09:25:18.937Z,92.83
2022-12-27T09:27:45.971Z,92.71
2022-12-27T09:30:13.246Z,91.80
2022-12-27T09:32:40.077Z,92.40
2022-12-27T09:35:07.305Z,91.85
2022-12-27T09:37:34.304Z,92.51
2022-12-27T09:40:01.178Z,91.56
2022-12-27T09:43:08.040Z,91.90
2022-12-27T09:45:51.801Z,91.40
2022-12-27T09:48:33.584Z,90.96
2022-12-27T09:51:16.958Z,91.34
2022-12-27T09:53:59.929Z,91.15
2022-12-27T09:56:54.563Z,90.64
2022-12-27T09:59:35.835Z,90.79
2022-12-27T10:02:03.946Z,90.51
2022-12-27T10:05:10.082Z,91.12
2022-12-27T10:07:40.528Z,90.29
2022-12-27T10:10:36.571Z,90.69
2022-12-27T10:13:11.364Z,91.38
2022-12-27T10:15:54.141Z,90.17
2022-12-27T10:18:40.934Z,90.20
2022-12-27T10:21:17.537Z,90.03
2022-12-27T10:23:53.391Z,89.53
2022-12-27T10:26:21.414Z,89.79
2022-12-27T10:29:19.815Z,89.72
2022-12-27T10:31:46.803Z,89.75
2022-12-27T10:34:17.813Z,89.01
2022-12-27T10:36:45.933Z,88.05
2022-12-27T10:39:20.270Z,87.99
2022-12-27T10:41:55.882Z,88.71
2022-12-27T10:44:23.834Z,88.44
2022-12-27T10:46:55.206Z,89.39
2022-12-27T10:49:25.053Z,88.95
2022-12-27T10:51:56.987Z,89.26
2022-12-27T10:54:28.474Z,88.51
2022-12-27T10:56:57.251Z,88.48
2022-12-27T10:59:27.070Z,88.38
2022-12-27T11:01:59.837Z,88.25
2022-12-27T11:04:28.451Z,88.05
2022-12-27T11:07:17.210Z,87.57
2022-12-27T11:09:50.829Z,87.94
2022-12-27T11:12:23.840Z,88.27
2022-12-27T11:15:00.110Z,87.75
2022-12-27T11:17:36.827Z,87.54
2022-12-27T11:20:23.905Z,87.46
2022-12-27T11:22:55.851Z,87.38
2022-12-27T11:25:25.451Z,86.50
2022-12-27T11:27:58.937Z,86.20
2022-12-27T11:30:33.206Z,86.66
2022-12-27T11:33:25.313Z,85.82
2022-12-27T11:35:57.352Z,86.16
2022-12-27T11:38:29.225Z,85.73
2022-12-27T11:41:03.205Z,85.70
2022-12-27T11:44:00.515Z,85.80
2022-12-27T11:46:40.003Z,86.52
2022-12-27T11:49:19.763Z,86.61
2022-12-27T11:52:13.810Z,86.62
2022-12-27T11:55:01.890Z,87.51
2022-12-27T11:57:44.100Z,88.08
2022-12-27T12:00:19.021Z,87.61
2022-12-27T12:03:04.789Z,87.92
2022-12-27T12:05:54.383Z,87.88
2022-12-27T12:09:08.469Z,88.15
2022-12-27T12:12:09.636Z,88.67
2022-12-27T12:14:54.925Z,87.87
2022-12-27T12:17:46.097Z,87.64
2022-12-27T12:20:51.053Z,87.88
2022-12-27T12:23:43.168Z,88.20
2022-12-27T12:26:13.029Z,88.30
2022-12-27T12:29:33.434Z,88.38
2022-12-27T12:32:31.448Z,88.18
2022-12-27T12:35:07.624Z,88.04
2022-12-27T12:37:55.341Z,88.62
2022-12-27T12:40:56.107Z,88.09
2022-12-27T12:43:47.351Z,87.85
2022-12-27T12:46:37.097Z,87.86
2022-12-27T12:49:16.561Z,87.84
2022-12-27T12:51:56.780Z,87.95
2022-12-27T12:54:26.513Z,88.02
2022-12-27T12:57:12.093Z,88.01
2022-12-27T12:59:41.679Z,87.67
2022-12-27T13:02:27.312Z,87.64
2022-12-27T13:05:12.560Z,86.94
2022-12-27T13:08:10.068Z,86.42
2022-12-27T13:11:04.467Z,86.05
2022-12-27T13:14:11.839Z,85.55
2022-12-27T13:17:18.662Z,86.29
2022-12-27T13:19:54.788Z,86.40
2022-12-27T13:22:39.909Z,85.88
2022-12-27T13:25:24.343Z,86.44
2022-12-27T13:28:02.346Z,86.02
2022-12-27T13:30:39.217Z,86.20
2022-12-27T13:33:35.207Z,86.69
2022-12-27T13:36:02.142Z,86.96
2022-12-27T13:38:57.738Z,86.88
2022-12-27T13:41:45.972Z,87.70
2022-12-27T13:44:36.512Z,87.87
2022-12-27T13:47:15.332Z,87.46
2022-12-27T13:50:16.548Z,87.61
2022-12-27T13:53:01.647Z,86.47
2022-12-27T13:55:48.477Z,86.77
2022-12-27T13:58:37.007Z,87.08
2022-12-27T14:01:22.030Z,87.88
2022-12-27T14:04:01.135Z,88.89
2022-12-27T14:06:52.459Z,89.03
2022-12-27T14:09:28.961Z,89.21
2022-12-27T14:12:13.337Z,89.75
2022-12-27T14:14:43.107Z,89.36
2022-12-27T14:17:58.591Z,89.55
2022-12-27T14:20:44.097Z,89.50
2022-12-27T14:23:35.661Z,89.73
2022-12-27T14:26:02.446Z,90.10
2022-12-27T14:29:00.201Z,89.85
2022-12-27T14:31:52.200Z,90.17
2022-12-27T14:34:47.069Z,90.11
2022-12-27T14:37:37.828Z,89.42
2022-12-27T14:40:38.852Z,89.57
2022-12-27T14:43:42.900Z,89.40
2022-12-27T14:46:31.633Z,89.29
2022-12-27T14:49:32.791Z,88.66
2022-12-27T14:52:28.980Z,89.06
2022-12-27T14:55:20.888Z,89.21
2022-12-27T14:58:17.238Z,89.52
2022-12-27T15:01:08.663Z,89.34
2022-12-27T15:03:47.246Z,89.83
2022-12-27T15:06:53.295Z,89.25
2022-12-27T15:09:51.638Z,89.00
2022-12-27T15:12:34.172Z,88.54
2022-12-27T15:15:21.088Z,88.83
2022-12-27T15:18:25.693Z,89.20
2022-12-27T15:21:12.436Z,89.86
2022-12-27T15:23:53.442Z,90.12
2022-12-27T15:27:01.112Z,90.31
2022-12-27T15:30:03.700Z,90.53
2022-12-27T15:32:53.080Z,90.56
2022-12-27T15:35:39.465Z,90.15
2022-12-27T15:38:14.088Z,91.06
2022-12-27T15:41:07.323Z,90.36
2022-12-27T15:44:01.904Z,90.59
2022-12-27T15:46:35.683Z,90.67
2022-12-27T15:49:21.367Z,90.85
2022-12-27T15:52:14.495Z,91.22
2022-12-27T15:55:09.018Z,90.50
2022-12-27T15:57:54.424Z,90.96
2022-12-27T16:00:23.952Z,89.99
2022-12-27T16:02:55.101Z,90.12
2022-12-27T16:05:22.204Z,89.38
2022-12-27T16:08:26.243Z,90.63
2022-12-27T16:10:54.566Z,89.91
2022-12-27T16:13:43.286Z,89.89
2022-12-27T16:16:33.269Z,88.96
2022-12-27T16:19:10.559Z,88.87
2022-12-27T16:21:42.974Z,89.79
2022-12-27T16:24:20.759Z,89.46
2022-12-27T16:27:02.278Z,89.03
2022-12-27T16:29:36.752Z,88.30
2022-12-27T16:32:23.221Z,88.91
2022-12-27T16:34:55.145Z,88.00
2022-12-27T16:37:31.091Z,88.51
2022-12-27T16:40:16.341Z,88.07
2022-12-27T16:42:58.109Z,87.93
2022-12-27T16:45:46.460Z,87.43
2022-12-27T16:48:31.755Z,87.53
2022-12-27T16:51:07.124Z,87.56
2022-12-27T16:54:01.859Z,87.86
2022-12-27T16:56:33.261Z,87.44
2022-12-27T16:59:00.921Z,87.56
2022-12-27T17:01:52.163Z,87.71
2022-12-27T17:04:50.025Z,87.64
2022-12-27T17:07:36.234Z,87.27
2022-12-27T17:10:30.196Z,87.24
2022-12-27T17:12:59.493Z,87.50
2022-12-27T17:15:27.435Z,86.90
2022-12-27T17:18:09.301Z,86.51
2022-12-27T17:20:41.157Z,87.38
2022-12-27T17:23:08.227Z,86.32
2022-12-27T17:25:51.777Z,87.08
2022-12-27T17:28:32.866Z,87.19
2022-12-27T17:31:18.886Z,86.65
2022-12-27T17:34:09.235Z,86.27
2022-12-27T17:37:17.997Z,86.54
2022-12-27T17:40:11.029Z,86.14
2022-12-27T17:43:24.872Z,86.29
2022-12-27T17:46:12.830Z,86.15
2022-12-27T17:48:39.930Z,86.59
2022-12-27T17:51:18.398Z,86.97
2022-12-27T17:54:06.580Z,86.80
2022-12-27T17:57:07.380Z,86.89
2022-12-27T17:59:35.190Z,87.14
2022-12-27T18:02:16.772Z,87.00
2022-12-27T18:04:56.635Z,87.87
2022-12-27T18:07:28.486Z,87.88
2022-12-27T18:10:21.388Z,87.89
2022-12-27T18:12:59.295Z,87.40
2022-12-27T18:15:29.362Z,86.88
2022-12-27T18:18:01.393Z,87.48
2022-12-27T18:20:28.629Z,87.77
2022-12-27T18:23:01.373Z,86.88
2022-12-27T18:25:32.459Z,86.60
2022-12-27T18:28:15.443Z,87.61
2022-12-27T18:30:51.818Z,87.41
2022-12-27T18:33:32.929Z,86.70
2022-12-27T18:36:04.393Z,86.26
2022-12-27T18:38:46.653Z,86.14
2022-12-27T18:41:20.968Z,87.03
2022-12-27T18:43:56.756Z,87.12
2022-12-27T18:46:30.830Z,87.33
2022-12-27T18:48:59.680Z,86.50
2022-12-27T18:51:39.685Z,86.90
2022-12-27T18:54:28.116Z,86.55
2022-12-27T18:56:57.469Z,86.93
2022-12-27T18:59:28.657Z,86.82
2022-12-27T19:01:58.951Z,86.72
2022-12-27T19:04:29.924Z,85.91
2022-12-27T19:07:15.087Z,85.84
2022-12-27T19:09:52.559Z,86.14
2022-12-27T19:12:38.144Z,86.00
2022-12-27T19:15:15.576Z,85.69
2022-12-27T19:17:47.586Z,85.65
2022-12-27T19:20:30.619Z,85.48
2022-12-27T19:23:21.834Z,85.52
2022-12-27T19:26:18.012Z,84.91
2022-12-27T19:28:46.180Z,86.46
2022-12-27T19:31:21.709Z,85.94
2022-12-27T19:34:07.992Z,85.61
2022-12-27T19:36:42.157Z,86.11
2022-12-27T19:39:30.476Z,86.44
2022-12-27T19:42:01.767Z,85.59
2022-12-27T19:44:29.876Z,85.25
2022-12-27T19:46:56.748Z,86.28
2022-12-27T19:49:41.881Z,85.81
2022-12-27T19:52:20.509Z,85.91
2022-12-27T19:54:49.709Z,86.19
2022-12-27T19:57:17.111Z,86.10
2022-12-27T19:59:44.271Z,85.70
2022-12-27T20:02:11.603Z,86.19
2022-12-27T20:04:38.712Z,86.13
2022-12-27T20:07:06.017Z,86.68
2022-12-27T20:09:32.927Z,86.22
2022-12-27T20:11:59.928Z,86.26
2022-12-27T20:14:27.019Z,86.17
2022-12-27T20:16:53.895Z,86.40
2022-12-27T20:19:21.606Z,87.69
2022-12-27T20:21:48.428Z,87.17
2022-12-27T20:24:15.354Z,86.26
2022-12-27T20:26:43.540Z,86.17
2022-12-27T20:29:11.721Z,85.71
2022-12-27T20:31:44.717Z,85.94
2022-12-27T20:34:13.007Z,87.02
2022-12-27T20:36:39.866Z,87.46
2022-12-27T20:39:07.271Z,86.71
2022-12-27T20:41:34.621Z,86.74
2022-12-27T20:44:02.221Z,86.81
2022-12-27T20:46:29.480Z,87.36
2022-12-27T20:48:57.288Z,85.94
2022-12-27T20:51:27.524Z,87.07
2022-12-27T20:53:57.240Z,87.06
2022-12-27T20:56:24.862Z,87.15
2022-12-27T20:58:51.872Z,86.88
2022-12-27T21:01:23.161Z,86.94
2022-12-27T21:03:50.090Z,85.57
2022-12-27T21:06:20.982Z,86.51
2022-12-27T21:08:56.303Z,85.65
2022-12-27T21:11:28.233Z,85.66
2022-12-27T21:13:55.629Z,85.16
2022-12-27T21:16:25.864Z,85.64
2022-12-27T21:18:54.036Z,84.94
2022-12-27T21:21:27.354Z,85.45
2022-12-27T21:23:56.779Z,85.37
2022-12-27T21:26:30.135Z,84.71
2022-12-27T21:28:58.553Z,85.63
2022-12-27T21:31:26.530Z,84.81
2022-12-27T21:33:53.520Z,85.50
2022-12-27T21:36:23.340Z,85.47
2022-12-27T21:38:51.188Z,85.38
2022-12-27T21:41:21.513Z,84.75
2022-12-27T21:43:49.258Z,85.78
2022-12-27T21:46:21.888Z,85.89
2022-12-27T21:48:57.926Z,84.81
2022-12-27T21:51:27.550Z,85.62
2022-12-27T21:53:55.261Z,85.07
2022-12-27T21:56:22.850Z,85.29
2022-12-27T21:58:50.142Z,85.28
2022-12-27T22:01:21.432Z,84.79
2022-12-27T22:03:51.485Z,85.54
2022-12-27T22:06:30.904Z,85.42
2022-12-27T22:09:00.249Z,84.65
2022-12-27T22:11:29.178Z,84.63
2022-12-27T22:13:56.098Z,84.94
2022-12-27T22:16:35.587Z,85.32
2022-12-27T22:19:06.077Z,84.67
2022-12-27T22:21:34.987Z,85.39
2022-12-27T22:24:03.680Z,84.77
2022-12-27T22:26:39.395Z,84.83
2022-12-27T22:29:07.857Z,85.10
2022-12-27T22:31:36.554Z,85.34
2022-12-27T22:34:05.548Z,84.73
2022-12-27T22:36:33.546Z,85.40
2022-12-27T22:39:01.426Z,84.67
2022-12-27T22:41:37.481Z,85.06
2022-12-27T22:44:11.300Z,85.64
2022-12-27T22:49:26.375Z,85.06
2022-12-27T22:51:53.441Z,85.18
2022-12-27T22:54:20.474Z,85.55
2022-12-27T22:57:07.287Z,85.47
2022-12-27T22:59:34.290Z,85.62
2022-12-27T23:02:01.236Z,85.49
2022-12-27T23:04:28.431Z,85.69
2022-12-27T23:06:55.399Z,85.53
2022-12-27T23:09:22.463Z,86.19
2022-12-27T23:11:49.376Z,85.95
2022-12-27T23:14:16.517Z,85.66
2022-12-27T23:16:46.524Z,85.98
2022-12-27T23:19:16.444Z,85.39
2022-12-27T23:21:43.590Z,85.71
2022-12-27T23:24:11.200Z,85.59
2022-12-27T23:26:39.628Z,84.98
2022-12-27T23:29:07.271Z,85.10
2022-12-27T23:31:34.557Z,85.46
2022-12-27T23:34:01.505Z,85.08
2022-12-27T23:36:30.361Z,85.44
2022-12-27T23:38:57.640Z,85.62
2022-12-27T23:41:26.097Z,85.25
2022-12-27T23:43:55.749Z,84.48
2022-12-27T23:46:30.056Z,84.49
2022-12-27T23:48:59.355Z,84.88
2022-12-27T23:51:28.076Z,84.54
2022-12-27T23:53:55.635Z,84.05
2022-12-27T23:56:31.147Z,84.52
2022-12-27T23:59:00.760Z,84.20
